Pagrindinis puslapis
METAR-TAF:

METAR-TAF

Oro uostai :

Estešundas-Frösön, Švedija

platuma: 63-11N, ilguma: 014-30E, Aukštis: 376 m

Dabartinis oras

Ataskaita buvo paskelbta 16 minutes, ne 19:20 UTC
Vėjas 4 kt iš Šiaurės Vakarų
Temperatūra 6°C
Drėgmė 93%
Slėgis 1001 hPa
Matomumas 10 km arba daugiau

METAR: ESNZ 231920Z AUTO 32004KT 9999 FEW053/// SCT062/// 06/05 Q1001

Laikas: 21:36 (19:36 UTC)

Prognozė

Ataskaita buvo paskelbta 4 valandos ir 6 minutes, ne 15:30 UTC
Prognozė galioja nuo 23 metu 16 UTC su 23 metu 19 UTC
Vėjas 17 kt iš Vakarų/Šiaurės Vakarų
Matomumas 10 km arba daugiau
Išsisklaidę debesys ne aukštis 1500 ft
Su prošvaistėmis ne aukštis 3000 ft
lietus
Tapsmas
nuo 23 metu 16 UTC su 23 metu 18 UTC
Vėjas 7 kt iš Šiaurės Vakarų
Tikimybė 40%
nuo 23 metu 16 UTC su 23 metu 19 UTC
Su prošvaistėmis ne aukštis 1200 ft
lietus

TAF: ESNZ 231530Z 2316/2319 30017KT 9999 -RA SCT015 BKN030 BECMG 2316/2318 31007KT PROB40 2316/2319 RA BKN012

Orai ataskaitas ir orų prognozės (METAR, TAF).

turimą stotys yra geltonos ir raudonos taškus žemėlapyje.

Perkelti pele per norėdami pamatyti stoties vardą.

Tada spustelėkite, norėdami matyti oro stebėjimo ir prognozės.

Norėdami pakeisti žemėlapį: spustelėkite ant žalios mygtukų su juodo kryžiaus žemyn,; žalią mygtuką su brūkšneliu, jei norite nutolinti; arba žalių rodyklių gretimoms žemėlapius.


METAR-TAF: